sensor_id;sensor_type;location;lat;lon;timestamp;temperature;humidity
1888;DHT22;944;51.574;6.980;2022-09-09T03:06:20;15.10;99.90
1888;DHT22;944;51.574;6.980;2022-09-09T03:08:28;15.20;99.90
1888;DHT22;944;51.574;6.980;2022-09-09T03:11:42;15.20;99.90
1888;DHT22;944;51.574;6.980;2022-09-09T03:14:46;15.20;99.90
1888;DHT22;944;51.574;6.980;2022-09-09T03:17:20;15.20;99.90
1888;DHT22;944;51.574;6.980;2022-09-09T03:23:00;15.20;99.90
1888;DHT22;944;51.574;6.980;2022-09-09T03:35:53;15.00;99.90
1888;DHT22;944;51.574;6.980;2022-09-09T03:39:00;14.90;99.90
1888;DHT22;944;51.574;6.980;2022-09-09T03:41:54;14.90;99.90
1888;DHT22;944;51.574;6.980;2022-09-09T03:44:25;14.90;99.90
1888;DHT22;944;51.574;6.980;2022-09-09T03:47:39;14.90;99.90
1888;DHT22;944;51.574;6.980;2022-09-09T03:50:10;14.90;99.90
1888;DHT22;944;51.574;6.980;2022-09-09T03:52:58;14.80;99.90
1888;DHT22;944;51.574;6.980;2022-09-09T03:55:57;14.90;99.90
1888;DHT22;944;51.574;6.980;2022-09-09T03:58:23;14.80;99.90
1888;DHT22;944;51.574;6.980;2022-09-09T04:01:17;14.90;99.90
1888;DHT22;944;51.574;6.980;2022-09-09T04:06:57;14.90;99.90
1888;DHT22;944;51.574;6.980;2022-09-09T04:09:26;15.00;99.90
1888;DHT22;944;51.574;6.980;2022-09-09T04:11:53;14.90;99.90
1888;DHT22;944;51.574;6.980;2022-09-09T04:14:20;14.90;99.90
1888;DHT22;944;51.574;6.980;2022-09-09T04:16:49;14.90;99.90
1888;DHT22;944;51.574;6.980;2022-09-09T04:55:43;15.10;99.90
1888;DHT22;944;51.574;6.980;2022-09-09T05:05:03;15.20;99.90
1888;DHT22;944;51.574;6.980;2022-09-09T05:08:00;15.20;99.90
1888;DHT22;944;51.574;6.980;2022-09-09T05:10:30;15.30;99.90
1888;DHT22;944;51.574;6.980;2022-09-09T05:13:03;15.40;99.90
1888;DHT22;944;51.574;6.980;2022-09-09T05:15:37;15.40;99.90
1888;DHT22;944;51.574;6.980;2022-09-09T05:18:16;15.40;99.90
1888;DHT22;944;51.574;6.980;2022-09-09T05:20:44;15.50;99.90
1888;DHT22;944;51.574;6.980;2022-09-09T05:23:16;15.50;99.90
1888;DHT22;944;51.574;6.980;2022-09-09T05:26:12;15.50;99.90
1888;DHT22;944;51.574;6.980;2022-09-09T05:32:23;15.50;99.90
1888;DHT22;944;51.574;6.980;2022-09-09T05:34:51;15.40;99.90
1888;DHT22;944;51.574;6.980;2022-09-09T05:37:20;15.60;99.90
1888;DHT22;944;51.574;6.980;2022-09-09T05:39:49;15.50;99.90
1888;DHT22;944;51.574;6.980;2022-09-09T05:42:17;15.60;99.90
1888;DHT22;944;51.574;6.980;2022-09-09T05:44:45;15.70;99.90
1888;DHT22;944;51.574;6.980;2022-09-09T05:47:12;15.70;99.90
1888;DHT22;944;51.574;6.980;2022-09-09T05:49:40;15.80;99.90
1888;DHT22;944;51.574;6.980;2022-09-09T05:52:07;15.70;99.90
1888;DHT22;944;51.574;6.980;2022-09-09T05:54:35;15.80;99.90
1888;DHT22;944;51.574;6.980;2022-09-09T05:57:03;15.90;99.90
1888;DHT22;944;51.574;6.980;2022-09-09T05:59:35;15.90;99.90
1888;DHT22;944;51.574;6.980;2022-09-09T06:02:08;15.90;99.90
1888;DHT22;944;51.574;6.980;2022-09-09T06:08:18;15.90;99.90
1888;DHT22;944;51.574;6.980;2022-09-09T06:20:17;15.90;99.90
1888;DHT22;944;51.574;6.980;2022-09-09T06:22:48;15.90;99.90
1888;DHT22;944;51.574;6.980;2022-09-09T06:25:25;16.00;99.90
1888;DHT22;944;51.574;6.980;2022-09-09T06:28:06;16.00;99.90
1888;DHT22;944;51.574;6.980;2022-09-09T06:31:10;16.10;99.90
1888;DHT22;944;51.574;6.980;2022-09-09T06:33:53;16.20;99.90
1888;DHT22;944;51.574;6.980;2022-09-09T06:36:29;16.40;99.90
1888;DHT22;944;51.574;6.980;2022-09-09T06:39:11;16.20;99.90
1888;DHT22;944;51.574;6.980;2022-09-09T06:41:45;16.50;99.90
1888;DHT22;944;51.574;6.980;2022-09-09T06:44:14;16.50;99.90
1888;DHT22;944;51.574;6.980;2022-09-09T06:46:43;16.60;99.90
1888;DHT22;944;51.574;6.980;2022-09-09T06:49:13;16.60;99.90
1888;DHT22;944;51.574;6.980;2022-09-09T06:51:53;16.70;99.90
1888;DHT22;944;51.574;6.980;2022-09-09T06:54:24;16.70;99.90
1888;DHT22;944;51.574;6.980;2022-09-09T12:43:24;20.60;99.90
1888;DHT22;944;51.574;6.980;2022-09-09T12:49:50;20.10;99.90
1888;DHT22;944;51.574;6.980;2022-09-09T12:52:31;20.10;99.90
1888;DHT22;944;51.574;6.980;2022-09-09T12:59:23;20.20;99.90
1888;DHT22;944;51.574;6.980;2022-09-09T13:01:58;20.30;99.90
1888;DHT22;944;51.574;6.980;2022-09-09T13:04:26;19.70;99.90
1888;DHT22;944;51.574;6.980;2022-09-09T13:10:23;17.90;99.90
1888;DHT22;944;51.574;6.980;2022-09-09T13:12:52;17.30;99.90
1888;DHT22;944;51.574;6.980;2022-09-09T13:15:23;17.10;99.90
1888;DHT22;944;51.574;6.980;2022-09-09T13:17:54;17.10;99.90
1888;DHT22;944;51.574;6.980;2022-09-09T13:20:23;17.10;99.90
1888;DHT22;944;51.574;6.980;2022-09-09T13:22:52;17.20;99.90
1888;DHT22;944;51.574;6.980;2022-09-09T13:25:25;17.10;99.90
1888;DHT22;944;51.574;6.980;2022-09-09T13:27:55;17.10;99.90
1888;DHT22;944;51.574;6.980;2022-09-09T13:30:28;17.00;99.90
1888;DHT22;944;51.574;6.980;2022-09-09T13:33:04;17.00;99.90
1888;DHT22;944;51.574;6.980;2022-09-09T13:35:33;16.80;99.90
1888;DHT22;944;51.574;6.980;2022-09-09T13:38:07;16.80;99.90
1888;DHT22;944;51.574;6.980;2022-09-09T13:40:35;16.70;99.90
1888;DHT22;944;51.574;6.980;2022-09-09T13:43:04;16.60;99.90
1888;DHT22;944;51.574;6.980;2022-09-09T13:45:32;16.80;99.90
1888;DHT22;944;51.574;6.980;2022-09-09T13:48:09;16.90;99.90
1888;DHT22;944;51.574;6.980;2022-09-09T13:50:37;17.10;99.90
1888;DHT22;944;51.574;6.980;2022-09-09T13:53:04;17.30;99.90
1888;DHT22;944;51.574;6.980;2022-09-09T13:55:31;17.50;99.90
1888;DHT22;944;51.574;6.980;2022-09-09T13:57:59;17.60;99.90
1888;DHT22;944;51.574;6.980;2022-09-09T14:00:30;17.60;99.90
1888;DHT22;944;51.574;6.980;2022-09-09T14:06:56;17.70;99.90
1888;DHT22;944;51.574;6.980;2022-09-09T14:09:23;18.00;99.90
1888;DHT22;944;51.574;6.980;2022-09-09T14:11:51;18.10;99.90
1888;DHT22;944;51.574;6.980;2022-09-09T14:14:37;18.20;99.90
1888;DHT22;944;51.574;6.980;2022-09-09T14:17:07;18.30;99.90
1888;DHT22;944;51.574;6.980;2022-09-09T14:19:36;18.50;99.90
1888;DHT22;944;51.574;6.980;2022-09-09T14:22:10;18.60;99.90
1888;DHT22;944;51.574;6.980;2022-09-09T14:24:54;18.60;99.90
1888;DHT22;944;51.574;6.980;2022-09-09T14:27:21;18.80;99.90
1888;DHT22;944;51.574;6.980;2022-09-09T14:29:47;18.80;99.90
1888;DHT22;944;51.574;6.980;2022-09-09T14:32:16;19.00;99.90
1888;DHT22;944;51.574;6.980;2022-09-09T14:34:44;18.90;99.90
1888;DHT22;944;51.574;6.980;2022-09-09T14:37:11;18.80;99.90
1888;DHT22;944;51.574;6.980;2022-09-09T14:39:38;18.80;99.90
1888;DHT22;944;51.574;6.980;2022-09-09T14:42:05;18.80;99.90
1888;DHT22;944;51.574;6.980;2022-09-09T14:44:34;18.90;99.90
1888;DHT22;944;51.574;6.980;2022-09-09T14:47:01;18.90;99.90
1888;DHT22;944;51.574;6.980;2022-09-09T14:50:05;18.90;99.90
1888;DHT22;944;51.574;6.980;2022-09-09T14:52:59;19.00;99.90
1888;DHT22;944;51.574;6.980;2022-09-09T14:55:26;18.70;99.90
1888;DHT22;944;51.574;6.980;2022-09-09T14:57:54;18.60;99.90
1888;DHT22;944;51.574;6.980;2022-09-09T15:00:44;18.50;99.90
1888;DHT22;944;51.574;6.980;2022-09-09T15:03:11;18.30;99.90
1888;DHT22;944;51.574;6.980;2022-09-09T15:09:20;17.90;99.90
1888;DHT22;944;51.574;6.980;2022-09-09T15:11:47;17.30;99.90
1888;DHT22;944;51.574;6.980;2022-09-09T15:14:14;17.00;99.90
1888;DHT22;944;51.574;6.980;2022-09-09T15:16:41;16.60;99.90
1888;DHT22;944;51.574;6.980;2022-09-09T15:19:08;16.40;99.90
1888;DHT22;944;51.574;6.980;2022-09-09T15:21:36;16.00;99.90
1888;DHT22;944;51.574;6.980;2022-09-09T15:24:05;15.70;99.90
1888;DHT22;944;51.574;6.980;2022-09-09T15:26:35;15.60;99.90
1888;DHT22;944;51.574;6.980;2022-09-09T15:29:04;15.40;99.90
1888;DHT22;944;51.574;6.980;2022-09-09T15:31:32;15.30;99.90
1888;DHT22;944;51.574;6.980;2022-09-09T15:34:00;15.20;99.90
1888;DHT22;944;51.574;6.980;2022-09-09T15:40:09;15.20;99.90
1888;DHT22;944;51.574;6.980;2022-09-09T15:52:01;15.50;99.90
1888;DHT22;944;51.574;6.980;2022-09-09T15:54:39;15.70;99.90
1888;DHT22;944;51.574;6.980;2022-09-09T16:00:54;15.80;99.90
1888;DHT22;944;51.574;6.980;2022-09-09T16:03:22;15.80;99.90
1888;DHT22;944;51.574;6.980;2022-09-09T16:06:18;15.90;99.90
1888;DHT22;944;51.574;6.980;2022-09-09T17:15:42;16.50;99.90
1888;DHT22;944;51.574;6.980;2022-09-09T17:18:09;16.70;99.90
1888;DHT22;944;51.574;6.980;2022-09-09T17:20:43;16.40;99.90
1888;DHT22;944;51.574;6.980;2022-09-09T17:23:12;16.50;99.90
1888;DHT22;944;51.574;6.980;2022-09-09T17:25:41;16.50;99.90
1888;DHT22;944;51.574;6.980;2022-09-09T17:28:11;16.50;99.90
1888;DHT22;944;51.574;6.980;2022-09-09T17:30:54;16.50;99.90
1888;DHT22;944;51.574;6.980;2022-09-09T17:37:50;16.50;99.90
1888;DHT22;944;51.574;6.980;2022-09-09T17:40:31;16.50;99.90
1888;DHT22;944;51.574;6.980;2022-09-09T17:47:24;16.40;99.90
1888;DHT22;944;51.574;6.980;2022-09-09T17:49:56;16.60;99.90
1888;DHT22;944;51.574;6.980;2022-09-09T17:52:40;16.40;99.90
1888;DHT22;944;51.574;6.980;2022-09-09T17:55:35;16.40;99.90
1888;DHT22;944;51.574;6.980;2022-09-09T17:58:46;16.40;99.90
1888;DHT22;944;51.574;6.980;2022-09-09T18:01:44;16.30;99.90
1888;DHT22;944;51.574;6.980;2022-09-09T19:55:09;16.10;99.90
1888;DHT22;944;51.574;6.980;2022-09-09T20:09:08;16.00;99.90
1888;DHT22;944;51.574;6.980;2022-09-09T20:12:01;16.00;99.90
1888;DHT22;944;51.574;6.980;2022-09-09T20:14:48;15.90;99.90
1888;DHT22;944;51.574;6.980;2022-09-09T20:17:21;15.80;99.90
1888;DHT22;944;51.574;6.980;2022-09-09T20:20:23;15.90;99.90
1888;DHT22;944;51.574;6.980;2022-09-09T20:22:54;15.90;99.90
1888;DHT22;944;51.574;6.980;2022-09-09T20:25:43;15.80;99.90
1888;DHT22;944;51.574;6.980;2022-09-09T20:59:32;15.90;99.90
1888;DHT22;944;51.574;6.980;2022-09-09T21:02:42;15.90;99.90
1888;DHT22;944;51.574;6.980;2022-09-09T21:05:21;15.80;99.90
1888;DHT22;944;51.574;6.980;2022-09-09T21:07:57;15.70;99.90
1888;DHT22;944;51.574;6.980;2022-09-09T21:10:28;15.70;99.90
1888;DHT22;944;51.574;6.980;2022-09-09T21:13:01;15.70;99.90
1888;DHT22;944;51.574;6.980;2022-09-09T21:15:37;15.70;99.90
1888;DHT22;944;51.574;6.980;2022-09-09T21:18:15;15.70;99.90
1888;DHT22;944;51.574;6.980;2022-09-09T21:21:31;15.70;99.90
1888;DHT22;944;51.574;6.980;2022-09-09T21:27:04;15.60;99.90
1888;DHT22;944;51.574;6.980;2022-09-09T21:29:53;15.70;99.90
1888;DHT22;944;51.574;6.980;2022-09-09T21:32:39;15.50;99.90
1888;DHT22;944;51.574;6.980;2022-09-09T21:35:33;15.50;99.90
1888;DHT22;944;51.574;6.980;2022-09-09T21:38:40;15.60;99.90
1888;DHT22;944;51.574;6.980;2022-09-09T21:41:40;15.50;99.90
1888;DHT22;944;51.574;6.980;2022-09-09T21:51:19;15.50;99.90
1888;DHT22;944;51.574;6.980;2022-09-09T21:54:23;15.60;99.90
1888;DHT22;944;51.574;6.980;2022-09-09T21:56:58;15.40;99.90
1888;DHT22;944;51.574;6.980;2022-09-09T21:59:56;15.30;99.90
1888;DHT22;944;51.574;6.980;2022-09-09T22:06:37;15.40;99.90
1888;DHT22;944;51.574;6.980;2022-09-09T22:09:08;15.40;99.90
1888;DHT22;944;51.574;6.980;2022-09-09T22:12:07;15.40;99.90
1888;DHT22;944;51.574;6.980;2022-09-09T22:15:16;15.40;99.90
1888;DHT22;944;51.574;6.980;2022-09-09T22:18:30;15.30;99.90
1888;DHT22;944;51.574;6.980;2022-09-09T22:21:16;15.20;99.90
1888;DHT22;944;51.574;6.980;2022-09-09T22:24:46;15.30;99.90
1888;DHT22;944;51.574;6.980;2022-09-09T22:27:24;15.30;99.90
1888;DHT22;944;51.574;6.980;2022-09-09T22:30:34;15.10;99.90
1888;DHT22;944;51.574;6.980;2022-09-09T22:33:34;15.20;99.90
1888;DHT22;944;51.574;6.980;2022-09-09T22:36:24;15.30;99.90
1888;DHT22;944;51.574;6.980;2022-09-09T22:39:28;15.30;99.90
1888;DHT22;944;51.574;6.980;2022-09-09T22:42:16;15.20;99.90
1888;DHT22;944;51.574;6.980;2022-09-09T22:45:18;15.40;99.90
1888;DHT22;944;51.574;6.980;2022-09-09T22:50:34;15.40;99.90
1888;DHT22;944;51.574;6.980;2022-09-09T22:56:16;15.30;99.90
1888;DHT22;944;51.574;6.980;2022-09-09T22:59:30;15.40;99.90
1888;DHT22;944;51.574;6.980;2022-09-09T23:02:04;15.40;99.90
1888;DHT22;944;51.574;6.980;2022-09-09T23:04:55;15.30;99.90
1888;DHT22;944;51.574;6.980;2022-09-09T23:07:37;15.30;99.90
1888;DHT22;944;51.574;6.980;2022-09-09T23:10:34;15.20;99.90
1888;DHT22;944;51.574;6.980;2022-09-09T23:13:16;15.20;99.90
1888;DHT22;944;51.574;6.980;2022-09-09T23:16:27;15.30;99.90
1888;DHT22;944;51.574;6.980;2022-09-09T23:19:12;15.20;99.90
1888;DHT22;944;51.574;6.980;2022-09-09T23:37:01;15.10;99.90
1888;DHT22;944;51.574;6.980;2022-09-09T23:40:07;15.20;99.90
1888;DHT22;944;51.574;6.980;2022-09-09T23:43:22;15.10;99.90
1888;DHT22;944;51.574;6.980;2022-09-09T23:46:00;15.00;99.90
1888;DHT22;944;51.574;6.980;2022-09-09T23:49:04;15.10;99.90
1888;DHT22;944;51.574;6.980;2022-09-09T23:51:35;15.00;99.90
1888;DHT22;944;51.574;6.980;2022-09-09T23:54:11;15.10;99.90
1888;DHT22;944;51.574;6.980;2022-09-09T23:56:41;15.10;99.90
1888;DHT22;944;51.574;6.980;2022-09-09T23:59:21;15.10;99.90
